createdAt,value
2023-01-25T00:01:22.819Z,42.10
2023-01-25T00:03:51.140Z,42.70
2023-01-25T00:06:19.203Z,34.90
2023-01-25T00:08:51.270Z,32.80
2023-01-25T00:11:20.494Z,30.90
2023-01-25T00:13:48.949Z,27.60
2023-01-25T00:16:17.587Z,26.40
2023-01-25T00:18:45.937Z,24.80
2023-01-25T00:21:18.027Z,25.90
2023-01-25T00:23:46.228Z,23.20
2023-01-25T00:26:14.764Z,24.10
2023-01-25T00:28:43.144Z,20.50
2023-01-25T00:31:16.242Z,21.00
2023-01-25T00:33:51.275Z,21.90
2023-01-25T00:36:39.508Z,23.90
2023-01-25T00:39:11.484Z,24.00
2023-01-25T00:41:40.539Z,23.90
2023-01-25T00:44:08.990Z,22.20
2023-01-25T00:46:39.514Z,20.90
2023-01-25T00:49:21.927Z,20.60
2023-01-25T00:51:50.658Z,21.80
2023-01-25T00:54:19.988Z,22.10
2023-01-25T00:56:48.130Z,23.20
2023-01-25T00:59:16.523Z,23.10
2023-01-25T01:01:44.826Z,23.30
2023-01-25T01:04:13.520Z,20.60
2023-01-25T01:06:42.923Z,21.80
2023-01-25T01:09:13.520Z,22.00
2023-01-25T01:11:41.637Z,20.50
2023-01-25T01:14:10.377Z,20.00
2023-01-25T01:16:38.813Z,19.80
2023-01-25T01:19:07.235Z,21.10
2023-01-25T01:21:35.521Z,19.30
2023-01-25T01:24:04.103Z,18.10
2023-01-25T01:26:32.554Z,18.20
2023-01-25T01:29:00.826Z,18.20
2023-01-25T01:31:29.407Z,15.60
2023-01-25T01:34:05.575Z,17.60
2023-01-25T01:36:34.675Z,16.00
2023-01-25T01:39:03.306Z,17.90
2023-01-25T01:41:31.837Z,16.70
2023-01-25T01:44:00.961Z,17.30
2023-01-25T01:46:40.491Z,17.10
2023-01-25T01:49:20.123Z,16.40
2023-01-25T01:51:50.044Z,18.00
2023-01-25T01:54:44.352Z,17.60
2023-01-25T01:59:48.914Z,17.10
2023-01-25T02:02:17.386Z,17.40
2023-01-25T02:04:47.635Z,17.10
2023-01-25T10:12:23.138Z,19.90
2023-01-25T10:14:53.717Z,21.20
2023-01-25T10:17:58.220Z,20.50
2023-01-25T10:20:37.104Z,20.10
2023-01-25T10:23:43.874Z,19.30
2023-01-25T10:26:26.154Z,19.10
2023-01-25T10:28:59.913Z,20.70
2023-01-25T10:31:52.925Z,20.10
2023-01-25T10:34:20.975Z,20.70
2023-01-25T10:36:56.530Z,19.80
2023-01-25T10:39:23.562Z,19.30
2023-01-25T10:42:01.626Z,20.50
2023-01-25T10:44:36.013Z,18.40
2023-01-25T10:47:35.013Z,18.10
2023-01-25T10:50:03.051Z,19.10
2023-01-25T10:52:31.415Z,18.30
2023-01-25T10:55:18.131Z,18.60
2023-01-25T10:57:49.629Z,17.30
2023-01-25T11:00:39.984Z,17.80
2023-01-25T11:03:20.867Z,19.80
2023-01-25T11:05:55.386Z,17.40
2023-01-25T11:08:23.706Z,17.50
2023-01-25T11:10:51.419Z,16.90
2023-01-25T11:13:26.720Z,16.30
2023-01-25T11:15:54.970Z,15.30
2023-01-25T11:18:24.853Z,15.90
2023-01-25T11:21:29.674Z,15.00
2023-01-25T11:24:08.514Z,16.20
2023-01-25T11:26:37.297Z,15.40
2023-01-25T11:29:20.605Z,16.90
2023-01-25T11:31:49.513Z,14.70
2023-01-25T11:34:18.397Z,15.70
2023-01-25T11:37:07.064Z,13.80
2023-01-25T11:39:52.396Z,13.90
2023-01-25T11:42:31.959Z,12.00
2023-01-25T11:45:41.461Z,12.80
2023-01-25T11:48:14.409Z,12.60
2023-01-25T11:50:46.954Z,12.10
2023-01-25T11:53:35.994Z,11.20
2023-01-25T11:56:20.079Z,11.50
2023-01-25T11:58:56.300Z,14.00
2023-01-25T12:01:35.142Z,11.80
2023-01-25T12:04:26.627Z,12.80
2023-01-25T12:06:59.181Z,13.10
2023-01-25T12:09:44.672Z,13.10
2023-01-25T12:12:14.990Z,14.70
2023-01-25T12:14:50.833Z,12.30
2023-01-25T12:17:26.304Z,12.40
2023-01-25T12:20:00.211Z,11.60
2023-01-25T12:22:56.475Z,11.60
2023-01-25T12:25:46.199Z,11.40
2023-01-25T12:28:31.557Z,13.60
2023-01-25T12:31:10.358Z,12.70
2023-01-25T12:33:59.039Z,12.00
2023-01-25T12:36:33.871Z,12.70
2023-01-25T12:39:04.625Z,12.20
2023-01-25T12:42:01.945Z,11.60
2023-01-25T12:44:49.466Z,13.00
2023-01-25T12:47:37.041Z,12.40
2023-01-25T12:50:23.327Z,12.40
2023-01-25T12:52:54.011Z,11.30
2023-01-25T12:55:21.107Z,11.30
2023-01-25T12:58:02.979Z,10.60
2023-01-25T13:00:52.683Z,12.60
2023-01-25T13:03:44.320Z,12.40
2023-01-25T13:06:42.000Z,10.60
2023-01-25T13:09:36.379Z,11.70
2023-01-25T13:12:03.913Z,11.30
2023-01-25T13:14:36.442Z,10.30
2023-01-25T13:17:10.750Z,12.90
2023-01-25T13:19:41.821Z,13.20
2023-01-25T13:22:10.218Z,12.90
2023-01-25T13:25:02.388Z,11.00
2023-01-25T13:27:30.363Z,10.70
2023-01-25T13:30:03.276Z,10.40
2023-01-25T13:32:39.205Z,10.30
2023-01-25T13:35:27.146Z,10.20
2023-01-25T13:38:03.186Z,10.90
2023-01-25T13:40:37.235Z,10.20
2023-01-25T13:43:11.340Z,11.30
2023-01-25T13:45:38.486Z,11.70
2023-01-25T13:48:27.215Z,10.40
2023-01-25T13:51:04.815Z,11.10
2023-01-25T13:53:34.683Z,12.10
2023-01-25T13:56:01.871Z,10.90
2023-01-25T13:58:36.917Z,11.90
2023-01-25T14:01:07.623Z,12.20
2023-01-25T14:04:02.526Z,12.50
2023-01-25T14:06:35.607Z,11.50
2023-01-25T14:09:06.870Z,13.70
2023-01-25T14:11:35.775Z,12.40
2023-01-25T14:14:03.831Z,14.30
2023-01-25T14:16:31.486Z,15.10
2023-01-25T14:19:22.317Z,12.50
2023-01-25T14:21:49.488Z,10.40
2023-01-25T14:24:18.405Z,12.60
2023-01-25T14:26:46.853Z,12.90
2023-01-25T14:29:31.848Z,13.80
2023-01-25T14:32:00.334Z,16.90
2023-01-25T14:34:27.554Z,17.90
2023-01-25T14:37:30.114Z,17.30
2023-01-25T14:39:56.961Z,14.90
2023-01-25T14:42:24.052Z,13.60
2023-01-25T14:44:51.065Z,14.70
2023-01-25T14:47:26.023Z,13.80
2023-01-25T14:49:53.368Z,15.70
2023-01-25T14:52:20.453Z,16.60
2023-01-25T14:54:51.873Z,21.20
2023-01-25T14:57:37.747Z,21.00
2023-01-25T15:00:08.630Z,25.90
2023-01-25T15:02:40.593Z,35.40
2023-01-25T15:05:28.932Z,38.00
2023-01-25T18:26:22.065Z,41.90
2023-01-25T18:28:52.109Z,45.50
2023-01-25T18:31:20.497Z,53.10
2023-01-25T21:59:18.718Z,40.00
2023-01-25T22:01:47.252Z,39.40
2023-01-25T22:04:16.505Z,36.30
